createdAt,value
2023-02-18T00:01:30.344Z,22.80
2023-02-18T00:03:58.441Z,22.35
2023-02-18T00:06:32.791Z,22.88
2023-02-18T00:09:02.184Z,22.63
2023-02-18T00:11:30.988Z,23.90
2023-02-18T00:14:00.045Z,24.83
2023-02-18T00:16:28.288Z,23.40
2023-02-18T00:18:57.059Z,23.42
2023-02-18T00:21:23.862Z,23.30
2023-02-18T00:23:51.173Z,24.25
2023-02-18T00:26:19.184Z,24.50
2023-02-18T00:28:51.881Z,23.98
2023-02-18T00:31:22.149Z,24.13
2023-02-18T00:33:48.908Z,24.10
2023-02-18T00:36:17.406Z,23.23
2023-02-18T00:38:46.416Z,23.33
2023-02-18T00:41:13.623Z,23.30
2023-02-18T00:43:40.262Z,25.60
2023-02-18T00:46:07.801Z,24.58
2023-02-18T00:48:35.024Z,25.55
2023-02-18T00:51:04.284Z,24.42
2023-02-18T00:53:31.118Z,24.17
2023-02-18T00:55:58.155Z,25.63
2023-02-18T00:58:25.231Z,26.05
2023-02-18T01:00:52.175Z,26.77
2023-02-18T01:03:19.095Z,27.25
2023-02-18T01:05:45.888Z,28.42
2023-02-18T01:08:12.654Z,27.48
2023-02-18T01:10:44.835Z,27.20
2023-02-18T01:13:12.502Z,27.70
2023-02-18T01:15:40.887Z,28.90
2023-02-18T01:18:08.612Z,29.48
2023-02-18T01:20:37.081Z,29.60
2023-02-18T01:23:04.921Z,29.90
2023-02-18T01:25:32.498Z,29.17
2023-02-18T01:28:00.914Z,30.48
2023-02-18T01:30:28.340Z,31.05
2023-02-18T01:32:56.553Z,29.67
2023-02-18T01:35:24.148Z,30.83
2023-02-18T01:37:51.335Z,30.48
2023-02-18T01:40:25.073Z,29.90
2023-02-18T01:42:52.895Z,31.65
2023-02-18T01:45:34.806Z,30.38
2023-02-18T01:48:17.241Z,31.85
2023-02-18T01:50:47.320Z,31.80
2023-02-18T01:53:21.734Z,30.75
2023-02-18T01:55:49.448Z,32.00
2023-02-18T01:58:16.792Z,32.55
2023-02-18T02:00:45.597Z,32.92
2023-02-18T02:03:14.545Z,32.38
2023-02-18T02:05:43.747Z,31.67
2023-02-18T02:08:14.522Z,32.22
2023-02-18T02:10:50.453Z,33.90
2023-02-18T02:13:54.054Z,34.20
2023-02-18T02:16:26.677Z,34.92
2023-02-18T02:19:12.905Z,34.25
2023-02-18T02:22:14.289Z,33.33
2023-02-18T02:24:59.178Z,34.97
2023-02-18T02:28:20.671Z,35.30
2023-02-18T02:30:53.149Z,36.70
2023-02-18T02:33:57.181Z,34.83
2023-02-18T02:36:38.474Z,35.15
2023-02-18T02:39:24.124Z,35.50
2023-02-18T02:42:20.006Z,36.55
2023-02-18T02:45:01.990Z,35.60
2023-02-18T02:47:54.773Z,36.72
2023-02-18T02:50:30.561Z,36.25
2023-02-18T02:53:02.407Z,36.63
2023-02-18T02:55:29.092Z,34.83
2023-02-18T02:57:57.067Z,35.70
2023-02-18T03:00:58.774Z,36.88
2023-02-18T03:06:21.273Z,34.88
2023-02-18T03:09:15.277Z,34.40
2023-02-18T03:12:11.048Z,31.60
2023-02-18T03:14:55.185Z,31.60
2023-02-18T03:17:27.737Z,33.20
2023-02-18T03:20:13.494Z,32.15
2023-02-18T03:22:46.585Z,31.17
2023-02-18T03:25:14.710Z,31.80
2023-02-18T03:27:56.582Z,31.33
2023-02-18T03:30:42.180Z,30.13
2023-02-18T03:33:14.224Z,31.13
2023-02-18T03:35:43.619Z,31.80
2023-02-18T03:38:24.798Z,29.63
2023-02-18T03:40:51.928Z,29.70
2023-02-18T03:43:19.191Z,32.47
2023-02-18T03:45:45.974Z,30.55
2023-02-18T03:48:12.630Z,31.67
2023-02-18T03:50:39.188Z,29.65
2023-02-18T03:53:05.827Z,29.65
2023-02-18T03:55:32.451Z,29.10
2023-02-18T03:57:59.026Z,30.33
2023-02-18T04:00:25.625Z,29.38
2023-02-18T04:02:52.156Z,29.48
2023-02-18T04:05:18.786Z,29.38
2023-02-18T04:07:45.393Z,28.92
2023-02-18T04:10:12.304Z,29.40
2023-02-18T04:12:38.950Z,29.38
2023-02-18T04:15:06.124Z,30.50
2023-02-18T04:17:34.040Z,32.08
2023-02-18T04:20:00.834Z,31.52
2023-02-18T04:22:27.703Z,31.52
2023-02-18T04:24:54.313Z,33.30
2023-02-18T04:27:20.973Z,35.83
2023-02-18T04:29:47.786Z,35.97
2023-02-18T04:32:14.428Z,36.08
2023-02-18T04:34:41.012Z,36.15
2023-02-18T04:37:07.676Z,38.13
2023-02-18T04:39:34.496Z,39.17
2023-02-18T04:42:01.490Z,39.42
2023-02-18T04:44:27.988Z,38.85
2023-02-18T04:46:54.560Z,39.65
2023-02-18T04:49:21.104Z,39.78
2023-02-18T04:51:47.651Z,37.45
2023-02-18T04:54:14.298Z,37.83
2023-02-18T04:56:40.844Z,37.08
2023-02-18T04:59:07.414Z,37.83
2023-02-18T05:01:34.118Z,38.13
2023-02-18T05:04:00.861Z,37.40
2023-02-18T05:06:27.465Z,38.45
2023-02-18T05:08:54.110Z,41.20
2023-02-18T05:11:20.857Z,39.35
2023-02-18T05:13:47.534Z,39.38
2023-02-18T05:16:14.170Z,38.58
2023-02-18T05:18:41.222Z,38.65
2023-02-18T05:21:08.195Z,35.22
2023-02-18T05:23:34.831Z,35.83
2023-02-18T05:26:01.503Z,34.33
2023-02-18T05:28:28.334Z,34.13
2023-02-18T05:30:55.124Z,35.33
2023-02-18T05:33:21.834Z,33.95
2023-02-18T05:35:49.306Z,31.98
2023-02-18T05:38:16.121Z,31.75
2023-02-18T05:40:42.732Z,32.38
2023-02-18T05:43:09.390Z,30.52
2023-02-18T05:45:36.668Z,31.08
2023-02-18T05:48:03.552Z,30.98
2023-02-18T05:50:30.130Z,31.55
2023-02-18T05:52:56.716Z,31.15
2023-02-18T05:55:24.378Z,30.60
2023-02-18T05:57:51.139Z,29.95
2023-02-18T06:00:18.584Z,30.42
2023-02-18T06:02:45.317Z,29.13
2023-02-18T06:05:14.457Z,28.88
2023-02-18T06:07:41.070Z,28.45
2023-02-18T06:10:08.223Z,27.60
2023-02-18T06:12:34.777Z,27.85
2023-02-18T06:15:01.376Z,25.92
2023-02-18T06:17:27.942Z,24.25
2023-02-18T06:19:54.487Z,25.08
2023-02-18T06:22:22.268Z,22.90
2023-02-18T06:24:48.888Z,19.88
2023-02-18T06:27:15.459Z,17.55
2023-02-18T06:29:42.185Z,17.13
2023-02-18T06:32:08.896Z,17.52
2023-02-18T06:34:35.481Z,16.25
2023-02-18T06:37:02.021Z,16.17
2023-02-18T06:39:29.145Z,15.60
2023-02-18T06:41:55.744Z,14.50
2023-02-18T06:44:22.376Z,14.35
2023-02-18T06:46:48.993Z,14.45
2023-02-18T06:49:15.628Z,13.45
2023-02-18T06:51:42.243Z,13.05
2023-02-18T06:54:08.911Z,13.88
2023-02-18T06:56:35.565Z,13.30
2023-02-18T06:59:02.117Z,13.20
2023-02-18T07:01:28.745Z,13.30
2023-02-18T07:03:55.932Z,13.43
2023-02-18T07:06:22.670Z,12.32
2023-02-18T07:08:49.276Z,12.85
2023-02-18T07:11:16.149Z,12.35
2023-02-18T07:13:42.697Z,13.43
2023-02-18T07:16:09.738Z,13.18
2023-02-18T07:18:36.407Z,13.50
2023-02-18T07:21:03.198Z,13.55
2023-02-18T07:23:29.802Z,12.38
2023-02-18T07:26:04.622Z,12.07
2023-02-18T07:28:31.288Z,12.20
2023-02-18T07:30:57.999Z,11.60
2023-02-18T07:33:24.699Z,11.40
2023-02-18T07:35:56.633Z,11.90
2023-02-18T07:38:24.713Z,11.43
2023-02-18T07:40:52.068Z,11.60
2023-02-18T07:43:18.813Z,11.80
2023-02-18T07:45:45.639Z,10.60
2023-02-18T07:48:13.086Z,10.85
2023-02-18T07:50:41.459Z,11.98
2023-02-18T07:53:09.051Z,12.07
2023-02-18T07:55:51.812Z,11.48
2023-02-18T07:58:19.377Z,12.13
2023-02-18T08:00:47.637Z,11.68
2023-02-18T08:03:16.397Z,11.65
2023-02-18T08:05:43.577Z,12.32
2023-02-18T08:08:13.791Z,13.32
2023-02-18T08:10:40.561Z,13.18
2023-02-18T08:13:07.356Z,12.05
2023-02-18T08:15:34.011Z,11.63
2023-02-18T08:18:01.510Z,11.50
2023-02-18T08:20:30.612Z,10.98
2023-02-18T08:22:57.680Z,10.52
2023-02-18T08:25:29.765Z,10.57
2023-02-18T08:27:56.732Z,9.07
2023-02-18T08:30:23.440Z,9.73
2023-02-18T08:32:50.122Z,8.35
2023-02-18T08:35:17.069Z,7.63
2023-02-18T08:37:52.606Z,7.70
2023-02-18T08:40:21.292Z,7.10
2023-02-18T08:42:48.067Z,7.30
2023-02-18T08:45:17.283Z,7.20
2023-02-18T08:48:17.766Z,6.85
2023-02-18T08:50:30.370Z,6.50
2023-02-18T08:52:57.919Z,6.50
2023-02-18T08:55:25.080Z,6.63
2023-02-18T08:57:51.638Z,6.95
2023-02-18T09:00:19.268Z,6.90
2023-02-18T09:02:47.403Z,6.38
2023-02-18T09:05:14.653Z,6.55
2023-02-18T09:07:41.400Z,7.22
2023-02-18T09:10:12.813Z,6.28
2023-02-18T09:12:39.374Z,7.93
2023-02-18T09:15:06.371Z,7.60
2023-02-18T09:17:33.827Z,6.80
2023-02-18T09:20:00.518Z,7.55
2023-02-18T09:22:27.288Z,6.20
2023-02-18T09:24:53.913Z,6.75
2023-02-18T09:27:22.074Z,6.53
2023-02-18T09:29:49.585Z,6.20
2023-02-18T09:32:32.593Z,6.03
2023-02-18T09:35:00.709Z,5.40
2023-02-18T09:37:27.354Z,5.80
2023-02-18T09:39:53.994Z,5.43
2023-02-18T09:42:28.098Z,5.35
2023-02-18T09:44:59.025Z,6.15
2023-02-18T09:47:34.760Z,7.25
2023-02-18T09:50:08.578Z,8.68
2023-02-18T09:52:38.368Z,9.02
2023-02-18T09:55:22.698Z,11.00
2023-02-18T09:57:55.940Z,10.75
2023-02-18T10:00:32.861Z,11.00
2023-02-18T10:03:15.252Z,11.13
2023-02-18T10:05:51.725Z,11.15
2023-02-18T10:08:30.236Z,11.02
2023-02-18T10:10:57.258Z,10.57
2023-02-18T10:13:33.793Z,11.18
2023-02-18T10:16:02.044Z,9.38
2023-02-18T10:18:41.921Z,8.50
2023-02-18T10:21:15.169Z,7.13
2023-02-18T10:23:54.573Z,6.20
2023-02-18T10:26:21.811Z,6.43
2023-02-18T10:28:48.698Z,6.63
2023-02-18T10:31:25.991Z,6.57
2023-02-18T10:33:59.107Z,6.80
2023-02-18T10:36:31.764Z,7.10
2023-02-18T10:38:58.265Z,7.13
2023-02-18T10:41:27.944Z,7.63
2023-02-18T10:44:17.567Z,8.00
2023-02-18T10:47:04.063Z,8.07
2023-02-18T10:49:33.761Z,8.43
2023-02-18T10:52:04.794Z,9.13
2023-02-18T10:54:57.846Z,9.30
2023-02-18T10:57:25.447Z,9.57
2023-02-18T11:00:01.700Z,10.52
2023-02-18T11:02:32.499Z,9.70
2023-02-18T11:05:16.547Z,9.90
2023-02-18T11:07:48.814Z,10.07
2023-02-18T11:10:30.335Z,10.48
2023-02-18T11:13:05.568Z,11.07
2023-02-18T11:15:32.414Z,10.70
2023-02-18T11:18:14.700Z,9.30
2023-02-18T11:20:42.085Z,9.27
2023-02-18T11:23:19.522Z,8.93
2023-02-18T11:26:00.667Z,8.38
2023-02-18T11:28:49.966Z,9.20
2023-02-18T11:31:22.173Z,8.85
2023-02-18T11:34:00.875Z,9.35
2023-02-18T11:36:33.448Z,8.73
2023-02-18T11:39:18.595Z,9.15
2023-02-18T11:41:56.081Z,8.45
2023-02-18T11:44:42.314Z,8.77
2023-02-18T11:47:15.051Z,8.52
2023-02-18T11:49:43.624Z,8.90
2023-02-18T11:52:33.356Z,8.40
2023-02-18T11:54:59.898Z,7.70
2023-02-18T11:57:28.121Z,8.98
2023-02-18T11:59:55.342Z,8.60
2023-02-18T12:02:31.615Z,8.38
2023-02-18T12:05:04.407Z,7.72
2023-02-18T12:08:09.823Z,8.73
2023-02-18T12:10:38.230Z,7.88
2023-02-18T12:13:38.374Z,7.53
2023-02-18T12:16:41.918Z,8.05
2023-02-18T12:19:37.136Z,7.95
2023-02-18T12:22:40.705Z,6.90
2023-02-18T12:25:25.990Z,7.05
2023-02-18T12:28:02.101Z,7.03
2023-02-18T12:30:31.932Z,7.20
2023-02-18T12:33:46.405Z,7.22
2023-02-18T12:36:34.953Z,6.60
2023-02-18T12:39:19.536Z,5.70
2023-02-18T12:42:23.371Z,5.97
2023-02-18T12:44:58.975Z,5.68
2023-02-18T12:47:47.346Z,6.22
2023-02-18T12:50:36.825Z,5.88
2023-02-18T12:56:05.340Z,5.95
2023-02-18T12:58:34.713Z,6.05
2023-02-18T13:01:22.650Z,6.25
2023-02-18T13:04:00.957Z,6.15
2023-02-18T13:06:33.666Z,5.75
2023-02-18T13:09:16.618Z,5.90
2023-02-18T13:12:01.530Z,5.85
2023-02-18T13:14:59.302Z,6.68
2023-02-18T13:17:29.751Z,6.15
2023-02-18T13:20:01.763Z,6.88
2023-02-18T13:22:31.014Z,6.05
2023-02-18T13:24:59.785Z,6.20
2023-02-18T13:27:29.392Z,6.35
2023-02-18T13:32:48.491Z,6.90
2023-02-18T13:35:29.582Z,7.75
2023-02-18T13:38:24.061Z,7.22
2023-02-18T13:40:51.470Z,8.38
2023-02-18T13:43:21.098Z,8.30
2023-02-18T13:48:40.430Z,8.18
2023-02-18T13:51:07.460Z,8.27
2023-02-18T13:53:57.362Z,8.70
2023-02-18T13:56:30.023Z,8.20
2023-02-18T13:59:08.067Z,8.27
2023-02-18T14:01:41.495Z,8.15
2023-02-18T14:04:32.962Z,8.10
2023-02-18T14:07:27.806Z,8.68
2023-02-18T14:09:59.735Z,9.10
2023-02-18T14:12:37.634Z,8.52
2023-02-18T14:15:27.598Z,8.50
2023-02-18T14:18:12.651Z,9.02
2023-02-18T14:20:39.236Z,8.10
2023-02-18T14:23:39.343Z,7.88
2023-02-18T14:26:07.483Z,7.65
2023-02-18T14:28:34.000Z,7.78
2023-02-18T14:31:03.584Z,7.72
2023-02-18T14:36:16.965Z,7.25
2023-02-18T14:38:57.166Z,7.20
2023-02-18T14:41:46.216Z,7.30
2023-02-18T14:44:31.625Z,6.88
2023-02-18T14:47:10.355Z,6.20
2023-02-18T14:49:39.506Z,6.30
2023-02-18T14:52:22.157Z,6.85
2023-02-18T14:54:49.470Z,5.80
2023-02-18T14:57:20.457Z,6.85
2023-02-18T14:59:48.467Z,6.32
2023-02-18T15:02:30.773Z,6.57
2023-02-18T15:05:15.460Z,6.45
2023-02-18T15:07:42.054Z,6.43
2023-02-18T15:10:15.960Z,6.75
2023-02-18T15:12:42.750Z,6.55
2023-02-18T15:15:15.632Z,6.50
2023-02-18T15:17:47.640Z,6.95
2023-02-18T15:20:15.544Z,6.97
2023-02-18T15:22:42.642Z,7.18
2023-02-18T15:25:13.227Z,6.97
2023-02-18T15:27:45.874Z,7.20
2023-02-18T15:30:31.415Z,7.15
2023-02-18T15:33:00.880Z,7.50
2023-02-18T15:35:31.484Z,7.47
2023-02-18T15:37:59.915Z,9.23
2023-02-18T15:40:32.112Z,8.05
2023-02-18T15:43:02.059Z,7.55
2023-02-18T15:45:38.901Z,6.50
2023-02-18T15:48:06.180Z,6.25
2023-02-18T15:50:38.518Z,5.70
2023-02-18T15:53:08.957Z,6.13
2023-02-18T15:55:39.188Z,5.70
2023-02-18T15:58:13.677Z,6.13
2023-02-18T16:00:47.150Z,5.65
2023-02-18T16:03:22.784Z,5.63
2023-02-18T16:05:50.177Z,5.90
2023-02-18T16:08:24.673Z,5.97
2023-02-18T16:10:56.880Z,5.97
2023-02-18T16:13:26.805Z,6.03
2023-02-18T16:15:53.897Z,6.10
2023-02-18T16:18:41.202Z,6.32
2023-02-18T16:21:25.942Z,7.80
2023-02-18T16:23:59.405Z,6.13
2023-02-18T16:26:38.305Z,6.72
2023-02-18T16:29:16.255Z,6.47
2023-02-18T16:31:43.614Z,6.50
2023-02-18T16:34:10.399Z,7.07
2023-02-18T16:36:37.146Z,6.07
2023-02-18T16:39:04.011Z,7.20
2023-02-18T16:41:30.815Z,7.20
2023-02-18T16:43:57.513Z,6.55
2023-02-18T16:46:25.078Z,7.43
2023-02-18T16:48:55.843Z,7.30
2023-02-18T16:51:25.887Z,6.80
2023-02-18T16:53:52.503Z,7.30
2023-02-18T16:56:22.704Z,7.05
2023-02-18T16:58:50.878Z,7.30
2023-02-18T17:01:23.256Z,7.90
2023-02-18T17:03:51.416Z,6.70
2023-02-18T17:06:18.472Z,7.10
2023-02-18T17:08:45.302Z,7.45
2023-02-18T17:11:22.294Z,7.70
2023-02-18T17:13:50.324Z,7.45
2023-02-18T17:16:17.186Z,7.63
2023-02-18T17:18:44.923Z,6.63
2023-02-18T17:21:16.885Z,7.50
2023-02-18T17:23:43.881Z,7.50
2023-02-18T17:26:20.980Z,7.78
2023-02-18T17:28:47.681Z,9.13
2023-02-18T17:31:18.897Z,7.20
2023-02-18T17:33:46.516Z,7.40
2023-02-18T17:36:13.689Z,8.10
2023-02-18T17:38:40.731Z,8.98
2023-02-18T17:41:08.169Z,8.93
2023-02-18T17:43:34.892Z,8.70
2023-02-18T17:46:01.674Z,8.35
2023-02-18T17:48:28.451Z,9.02
2023-02-18T17:50:55.655Z,9.15
2023-02-18T17:53:22.587Z,8.93
2023-02-18T17:55:49.921Z,9.70
2023-02-18T17:58:16.924Z,9.95
2023-02-18T18:00:45.320Z,9.82
2023-02-18T18:03:13.858Z,8.77
2023-02-18T18:05:42.175Z,9.80
2023-02-18T18:08:09.520Z,9.68
2023-02-18T18:10:39.569Z,9.30
2023-02-18T18:13:09.238Z,9.75
2023-02-18T18:15:41.699Z,9.30
2023-02-18T18:18:10.862Z,9.77
2023-02-18T18:20:38.793Z,9.95
2023-02-18T18:23:08.051Z,9.85
2023-02-18T18:25:38.700Z,8.82
2023-02-18T18:28:06.788Z,9.07
2023-02-18T18:30:35.807Z,8.52
2023-02-18T18:33:03.656Z,7.78
2023-02-18T18:35:33.370Z,8.15
2023-02-18T18:38:00.786Z,7.68
2023-02-18T18:40:29.656Z,8.13
2023-02-18T18:42:57.603Z,7.85
2023-02-18T18:45:25.777Z,8.40
2023-02-18T18:47:53.868Z,9.48
2023-02-18T18:50:21.978Z,9.27
2023-02-18T18:52:50.318Z,9.63
2023-02-18T18:55:35.604Z,9.77
2023-02-18T18:58:02.700Z,9.85
2023-02-18T19:00:32.667Z,9.70
2023-02-18T19:03:00.178Z,11.02
2023-02-18T19:05:26.798Z,10.60
2023-02-18T19:07:53.979Z,11.20
2023-02-18T19:10:21.041Z,10.95
2023-02-18T19:12:49.379Z,12.00
2023-02-18T19:15:19.760Z,12.10
2023-02-18T19:17:52.830Z,12.43
2023-02-18T19:20:26.036Z,11.55
2023-02-18T19:22:52.699Z,11.45
2023-02-18T19:25:20.527Z,10.93
2023-02-18T19:27:48.997Z,10.40
2023-02-18T19:30:28.111Z,10.50
2023-02-18T19:32:57.566Z,9.20
2023-02-18T19:35:26.345Z,8.68
2023-02-18T19:37:53.151Z,9.02
2023-02-18T19:40:22.735Z,7.60
2023-02-18T19:45:17.640Z,8.45
2023-02-18T19:47:44.619Z,8.00
2023-02-18T19:50:14.774Z,9.23
2023-02-18T19:52:41.402Z,9.25
2023-02-18T19:55:08.425Z,10.25
2023-02-18T19:57:35.136Z,10.85
2023-02-18T20:00:03.561Z,11.65
2023-02-18T20:02:40.134Z,11.90
2023-02-18T20:05:07.897Z,12.68
2023-02-18T20:07:36.264Z,12.70
2023-02-18T20:10:04.783Z,12.80
2023-02-18T20:12:32.005Z,11.98
2023-02-18T20:14:58.650Z,11.85
2023-02-18T20:17:25.454Z,12.88
2023-02-18T20:19:52.013Z,12.98
2023-02-18T20:22:18.615Z,12.68
2023-02-18T20:24:45.303Z,13.40
2023-02-18T20:27:12.731Z,12.63
2023-02-18T20:29:39.517Z,13.15
2023-02-18T20:32:06.868Z,13.77
2023-02-18T20:34:33.612Z,14.63
2023-02-18T20:37:01.038Z,15.40
2023-02-18T20:39:28.071Z,15.93
2023-02-18T20:41:55.036Z,16.98
2023-02-18T20:44:21.973Z,16.30
2023-02-18T20:46:49.686Z,17.42
2023-02-18T20:49:18.946Z,17.13
2023-02-18T20:51:45.680Z,16.73
2023-02-18T20:54:15.795Z,17.90
2023-02-18T20:56:43.748Z,17.00
2023-02-18T20:59:14.841Z,17.42
2023-02-18T21:01:42.976Z,17.15
2023-02-18T21:04:12.399Z,17.15
2023-02-18T21:06:39.627Z,17.35
2023-02-18T21:09:06.650Z,17.17
2023-02-18T21:11:33.543Z,18.23
2023-02-18T21:14:00.688Z,19.25
2023-02-18T21:16:28.719Z,19.83
2023-02-18T21:18:55.411Z,19.27
2023-02-18T21:21:23.658Z,18.48
2023-02-18T21:23:50.979Z,18.92
2023-02-18T21:26:20.513Z,18.60
2023-02-18T21:31:20.280Z,19.08
2023-02-18T21:33:47.627Z,20.13
2023-02-18T21:36:14.472Z,21.52
2023-02-18T21:38:44.443Z,21.13
2023-02-18T21:41:12.597Z,20.38
2023-02-18T21:43:39.577Z,21.10
2023-02-18T21:46:14.569Z,20.98
2023-02-18T21:48:59.961Z,20.88
2023-02-18T21:51:45.445Z,20.40
2023-02-18T21:54:12.176Z,20.60
2023-02-18T21:56:38.780Z,20.15
2023-02-18T21:59:05.326Z,19.40
2023-02-18T22:01:31.929Z,19.02
2023-02-18T22:03:58.567Z,19.33
2023-02-18T22:06:25.169Z,18.95
2023-02-18T22:08:51.784Z,17.90
2023-02-18T22:11:18.932Z,19.75
2023-02-18T22:13:45.623Z,19.73
2023-02-18T22:16:12.204Z,19.55
2023-02-18T22:18:38.827Z,19.55
2023-02-18T22:21:09.663Z,18.75
2023-02-18T22:23:36.612Z,20.80
2023-02-18T22:26:08.057Z,19.95
2023-02-18T22:28:35.695Z,21.63
2023-02-18T22:31:11.167Z,21.38
2023-02-18T22:33:38.480Z,21.17
2023-02-18T22:36:09.411Z,20.73
2023-02-18T22:38:37.851Z,20.05
2023-02-18T22:41:11.674Z,19.65
2023-02-18T22:43:39.299Z,19.67
2023-02-18T22:46:11.790Z,19.92
2023-02-18T22:48:39.784Z,18.77
2023-02-18T22:51:09.839Z,18.88
2023-02-18T22:53:37.955Z,17.77
2023-02-18T22:56:10.522Z,18.23
2023-02-18T22:58:37.100Z,19.10
2023-02-18T23:01:05.033Z,20.05
2023-02-18T23:03:33.245Z,18.85
2023-02-18T23:06:04.835Z,20.73
2023-02-18T23:08:32.996Z,21.33
2023-02-18T23:11:01.612Z,21.95
2023-02-18T23:13:28.400Z,22.75
2023-02-18T23:16:00.367Z,22.33
2023-02-18T23:18:27.799Z,24.00
2023-02-18T23:21:21.166Z,24.55
2023-02-18T23:23:50.084Z,23.00
2023-02-18T23:26:17.722Z,22.52
2023-02-18T23:28:47.694Z,22.55
2023-02-18T23:31:23.800Z,20.95
2023-02-18T23:33:59.670Z,21.10
2023-02-18T23:36:31.952Z,18.60
2023-02-18T23:39:01.589Z,18.58
2023-02-18T23:41:29.161Z,16.77
2023-02-18T23:43:55.855Z,15.05
2023-02-18T23:46:24.945Z,14.35
2023-02-18T23:48:54.231Z,13.05
2023-02-18T23:51:22.623Z,10.88
2023-02-18T23:53:49.943Z,9.18
2023-02-18T23:56:21.743Z,8.00
2023-02-18T23:58:52.338Z,7.35
